ADDS METAR Data INFO
IDs: Format: Raw Decoded Include TAF

Data at: 2046 UTC 24 Apr 2018

METAR for:KMIE (Muncie/Johnson Fld, IN, US)
Text:KMIE 241953Z 07008KT 9SM FEW009 SCT015 OVC025 14/12 A2994 RMK AO2 RAB1854E04B27E39 SLP134 P0000 T01440117
Temperature: 14.4°C ( 58°F)
Dewpoint: 11.7°C ( 53°F) [RH = 84%]
Pressure (altimeter):29.94 inches Hg (1014.0 mb) [Sea level pressure: 1013.4 mb]
Winds:from the ENE (70 degrees) at 9 MPH (8 knots; 4.1 m/s)
Visibility: 9 sm ( 14 km)
Ceiling:2500 feet AGL
Clouds: few clouds at 900 feet AGL, scattered clouds at 1500 feet AGL, overcast cloud deck at 2500 feet AGL